sensor_id;sensor_type;location;lat;lon;timestamp;P1;durP1;ratioP1;P2;durP2;ratioP2
14021;SDS011;7086;48.116;11.580;2023-06-22T00:01:16;5.00;;;2.55;;
14021;SDS011;7086;48.116;11.580;2023-06-22T00:03:43;5.97;;;2.03;;
14021;SDS011;7086;48.116;11.580;2023-06-22T00:06:10;5.55;;;2.55;;
14021;SDS011;7086;48.116;11.580;2023-06-22T00:08:38;3.63;;;2.30;;
14021;SDS011;7086;48.116;11.580;2023-06-22T00:11:05;5.03;;;2.28;;
14021;SDS011;7086;48.116;11.580;2023-06-22T00:13:32;5.50;;;1.92;;
14021;SDS011;7086;48.116;11.580;2023-06-22T00:15:58;3.38;;;3.08;;
14021;SDS011;7086;48.116;11.580;2023-06-22T00:18:25;2.38;;;2.17;;
14021;SDS011;7086;48.116;11.580;2023-06-22T00:20:53;6.15;;;2.50;;
14021;SDS011;7086;48.116;11.580;2023-06-22T00:23:22;3.63;;;2.45;;
14021;SDS011;7086;48.116;11.580;2023-06-22T00:25:51;4.20;;;2.20;;
14021;SDS011;7086;48.116;11.580;2023-06-22T00:28:18;3.28;;;1.98;;
14021;SDS011;7086;48.116;11.580;2023-06-22T00:30:45;3.35;;;2.20;;
14021;SDS011;7086;48.116;11.580;2023-06-22T00:33:12;4.88;;;2.45;;
14021;SDS011;7086;48.116;11.580;2023-06-22T00:35:41;4.90;;;2.40;;
14021;SDS011;7086;48.116;11.580;2023-06-22T00:38:07;6.22;;;2.13;;
14021;SDS011;7086;48.116;11.580;2023-06-22T00:40:34;5.30;;;2.40;;
14021;SDS011;7086;48.116;11.580;2023-06-22T00:43:03;3.50;;;1.80;;
14021;SDS011;7086;48.116;11.580;2023-06-22T00:45:30;4.32;;;2.55;;
14021;SDS011;7086;48.116;11.580;2023-06-22T00:47:57;4.97;;;2.30;;
14021;SDS011;7086;48.116;11.580;2023-06-22T00:50:25;2.92;;;2.55;;
14021;SDS011;7086;48.116;11.580;2023-06-22T00:52:54;2.67;;;2.45;;
14021;SDS011;7086;48.116;11.580;2023-06-22T00:55:23;4.95;;;2.50;;
14021;SDS011;7086;48.116;11.580;2023-06-22T00:57:51;2.95;;;2.25;;
14021;SDS011;7086;48.116;11.580;2023-06-22T01:00:22;2.60;;;2.30;;
14021;SDS011;7086;48.116;11.580;2023-06-22T01:02:50;3.00;;;2.15;;
14021;SDS011;7086;48.116;11.580;2023-06-22T01:05:19;5.20;;;2.25;;
14021;SDS011;7086;48.116;11.580;2023-06-22T01:07:49;4.57;;;2.20;;
14021;SDS011;7086;48.116;11.580;2023-06-22T01:10:25;3.42;;;2.75;;
14021;SDS011;7086;48.116;11.580;2023-06-22T01:12:58;3.63;;;2.20;;
14021;SDS011;7086;48.116;11.580;2023-06-22T01:15:30;3.97;;;2.45;;
14021;SDS011;7086;48.116;11.580;2023-06-22T01:18:01;4.22;;;2.28;;
14021;SDS011;7086;48.116;11.580;2023-06-22T01:20:30;5.07;;;2.22;;
14021;SDS011;7086;48.116;11.580;2023-06-22T01:23:07;2.72;;;2.22;;
14021;SDS011;7086;48.116;11.580;2023-06-22T01:25:46;2.65;;;2.15;;
14021;SDS011;7086;48.116;11.580;2023-06-22T01:28:19;3.03;;;2.17;;
14021;SDS011;7086;48.116;11.580;2023-06-22T01:31:09;4.05;;;2.33;;
14021;SDS011;7086;48.116;11.580;2023-06-22T01:33:39;3.08;;;2.40;;
14021;SDS011;7086;48.116;11.580;2023-06-22T01:36:09;3.55;;;2.42;;
14021;SDS011;7086;48.116;11.580;2023-06-22T01:38:36;5.57;;;2.40;;
14021;SDS011;7086;48.116;11.580;2023-06-22T01:41:04;3.15;;;2.15;;
14021;SDS011;7086;48.116;11.580;2023-06-22T01:43:31;4.07;;;2.08;;
14021;SDS011;7086;48.116;11.580;2023-06-22T01:46:00;6.43;;;2.83;;
14021;SDS011;7086;48.116;11.580;2023-06-22T01:48:29;8.23;;;3.63;;
14021;SDS011;7086;48.116;11.580;2023-06-22T01:50:57;2.67;;;2.20;;
14021;SDS011;7086;48.116;11.580;2023-06-22T01:53:24;2.60;;;2.25;;
14021;SDS011;7086;48.116;11.580;2023-06-22T01:55:51;3.17;;;2.22;;
14021;SDS011;7086;48.116;11.580;2023-06-22T01:58:18;3.80;;;3.08;;
14021;SDS011;7086;48.116;11.580;2023-06-22T02:00:48;3.00;;;2.25;;
14021;SDS011;7086;48.116;11.580;2023-06-22T02:03:20;7.20;;;3.03;;
14021;SDS011;7086;48.116;11.580;2023-06-22T02:05:52;5.07;;;2.00;;
14021;SDS011;7086;48.116;11.580;2023-06-22T02:08:23;4.47;;;2.20;;
14021;SDS011;7086;48.116;11.580;2023-06-22T02:10:54;2.50;;;2.30;;
14021;SDS011;7086;48.116;11.580;2023-06-22T02:13:23;3.90;;;2.85;;
14021;SDS011;7086;48.116;11.580;2023-06-22T02:15:51;4.65;;;2.92;;
14021;SDS011;7086;48.116;11.580;2023-06-22T02:18:18;6.30;;;3.05;;
14021;SDS011;7086;48.116;11.580;2023-06-22T02:20:45;4.47;;;2.53;;
14021;SDS011;7086;48.116;11.580;2023-06-22T02:23:14;4.18;;;2.58;;
14021;SDS011;7086;48.116;11.580;2023-06-22T02:25:41;4.38;;;2.78;;
14021;SDS011;7086;48.116;11.580;2023-06-22T02:28:09;5.65;;;3.42;;
14021;SDS011;7086;48.116;11.580;2023-06-22T02:30:36;6.32;;;3.05;;
14021;SDS011;7086;48.116;11.580;2023-06-22T02:33:03;3.75;;;3.40;;
14021;SDS011;7086;48.116;11.580;2023-06-22T02:35:30;5.40;;;3.35;;
14021;SDS011;7086;48.116;11.580;2023-06-22T02:37:57;4.65;;;3.13;;
14021;SDS011;7086;48.116;11.580;2023-06-22T02:40:27;7.75;;;3.20;;
14021;SDS011;7086;48.116;11.580;2023-06-22T02:42:55;5.55;;;2.88;;
14021;SDS011;7086;48.116;11.580;2023-06-22T02:45:23;6.20;;;2.85;;
14021;SDS011;7086;48.116;11.580;2023-06-22T02:47:50;5.32;;;2.90;;
14021;SDS011;7086;48.116;11.580;2023-06-22T02:50:16;5.07;;;3.25;;
14021;SDS011;7086;48.116;11.580;2023-06-22T02:52:43;6.97;;;2.80;;
14021;SDS011;7086;48.116;11.580;2023-06-22T02:55:10;5.30;;;2.60;;
14021;SDS011;7086;48.116;11.580;2023-06-22T02:57:38;3.90;;;2.45;;
14021;SDS011;7086;48.116;11.580;2023-06-22T03:00:09;5.32;;;2.50;;
14021;SDS011;7086;48.116;11.580;2023-06-22T03:02:42;3.83;;;2.92;;
14021;SDS011;7086;48.116;11.580;2023-06-22T03:05:09;3.75;;;2.47;;
14021;SDS011;7086;48.116;11.580;2023-06-22T03:07:38;3.22;;;2.67;;
14021;SDS011;7086;48.116;11.580;2023-06-22T03:10:06;2.90;;;2.70;;
14021;SDS011;7086;48.116;11.580;2023-06-22T03:12:34;4.85;;;2.47;;
14021;SDS011;7086;48.116;11.580;2023-06-22T03:15:02;4.85;;;2.63;;
14021;SDS011;7086;48.116;11.580;2023-06-22T03:17:30;4.22;;;2.38;;
14021;SDS011;7086;48.116;11.580;2023-06-22T03:19:57;3.42;;;2.72;;
14021;SDS011;7086;48.116;11.580;2023-06-22T03:22:24;4.45;;;2.72;;
14021;SDS011;7086;48.116;11.580;2023-06-22T03:24:50;3.05;;;2.47;;
14021;SDS011;7086;48.116;11.580;2023-06-22T03:27:17;2.47;;;2.38;;
14021;SDS011;7086;48.116;11.580;2023-06-22T03:29:44;3.95;;;3.00;;
14021;SDS011;7086;48.116;11.580;2023-06-22T03:32:12;5.22;;;3.17;;
14021;SDS011;7086;48.116;11.580;2023-06-22T03:34:39;6.53;;;3.38;;
14021;SDS011;7086;48.116;11.580;2023-06-22T03:37:06;4.13;;;2.85;;
14021;SDS011;7086;48.116;11.580;2023-06-22T03:39:32;3.00;;;2.72;;
14021;SDS011;7086;48.116;11.580;2023-06-22T03:41:59;5.78;;;2.92;;
14021;SDS011;7086;48.116;11.580;2023-06-22T03:44:26;5.82;;;2.83;;
14021;SDS011;7086;48.116;11.580;2023-06-22T03:46:53;6.38;;;3.05;;
14021;SDS011;7086;48.116;11.580;2023-06-22T03:49:21;7.93;;;3.67;;
14021;SDS011;7086;48.116;11.580;2023-06-22T03:51:48;9.63;;;3.33;;
14021;SDS011;7086;48.116;11.580;2023-06-22T03:54:15;7.55;;;3.95;;
14021;SDS011;7086;48.116;11.580;2023-06-22T03:56:42;6.47;;;3.90;;
14021;SDS011;7086;48.116;11.580;2023-06-22T03:59:08;4.88;;;3.17;;
14021;SDS011;7086;48.116;11.580;2023-06-22T04:01:35;5.47;;;3.67;;
14021;SDS011;7086;48.116;11.580;2023-06-22T04:04:02;4.25;;;3.75;;
14021;SDS011;7086;48.116;11.580;2023-06-22T04:06:30;5.07;;;4.32;;
14021;SDS011;7086;48.116;11.580;2023-06-22T04:08:59;8.75;;;5.43;;
14021;SDS011;7086;48.116;11.580;2023-06-22T04:11:25;9.98;;;5.38;;
14021;SDS011;7086;48.116;11.580;2023-06-22T04:13:52;5.65;;;3.75;;
14021;SDS011;7086;48.116;11.580;2023-06-22T04:16:19;5.57;;;4.15;;
14021;SDS011;7086;48.116;11.580;2023-06-22T04:18:46;4.75;;;4.05;;
14021;SDS011;7086;48.116;11.580;2023-06-22T04:21:13;6.70;;;3.58;;
14021;SDS011;7086;48.116;11.580;2023-06-22T04:23:41;9.07;;;4.80;;
14021;SDS011;7086;48.116;11.580;2023-06-22T04:26:09;6.47;;;4.15;;
14021;SDS011;7086;48.116;11.580;2023-06-22T04:28:36;8.07;;;5.47;;
14021;SDS011;7086;48.116;11.580;2023-06-22T04:31:02;6.75;;;4.28;;
14021;SDS011;7086;48.116;11.580;2023-06-22T04:33:30;8.25;;;6.85;;
14021;SDS011;7086;48.116;11.580;2023-06-22T04:35:57;9.27;;;4.75;;
14021;SDS011;7086;48.116;11.580;2023-06-22T04:38:26;6.05;;;4.30;;
14021;SDS011;7086;48.116;11.580;2023-06-22T04:40:54;5.50;;;3.72;;
14021;SDS011;7086;48.116;11.580;2023-06-22T04:43:21;11.40;;;5.30;;
14021;SDS011;7086;48.116;11.580;2023-06-22T04:45:48;5.72;;;4.00;;
14021;SDS011;7086;48.116;11.580;2023-06-22T04:48:17;5.28;;;4.60;;
14021;SDS011;7086;48.116;11.580;2023-06-22T04:50:44;8.38;;;4.65;;
14021;SDS011;7086;48.116;11.580;2023-06-22T04:53:11;8.23;;;4.88;;
14021;SDS011;7086;48.116;11.580;2023-06-22T04:55:37;6.90;;;4.10;;
14021;SDS011;7086;48.116;11.580;2023-06-22T04:58:08;7.45;;;4.72;;
14021;SDS011;7086;48.116;11.580;2023-06-22T05:00:38;7.97;;;4.70;;
14021;SDS011;7086;48.116;11.580;2023-06-22T05:03:05;6.47;;;4.45;;
14021;SDS011;7086;48.116;11.580;2023-06-22T05:05:36;7.50;;;4.72;;
14021;SDS011;7086;48.116;11.580;2023-06-22T05:08:03;5.65;;;5.07;;
14021;SDS011;7086;48.116;11.580;2023-06-22T05:10:32;4.97;;;4.45;;
14021;SDS011;7086;48.116;11.580;2023-06-22T05:12:58;5.90;;;4.90;;
14021;SDS011;7086;48.116;11.580;2023-06-22T05:15:27;13.85;;;5.50;;
14021;SDS011;7086;48.116;11.580;2023-06-22T05:17:55;5.40;;;4.45;;
14021;SDS011;7086;48.116;11.580;2023-06-22T05:20:23;7.72;;;6.55;;
14021;SDS011;7086;48.116;11.580;2023-06-22T05:22:50;19.33;;;16.60;;
14021;SDS011;7086;48.116;11.580;2023-06-22T05:25:17;11.13;;;9.18;;
14021;SDS011;7086;48.116;11.580;2023-06-22T05:27:43;7.47;;;6.05;;
14021;SDS011;7086;48.116;11.580;2023-06-22T05:30:11;6.43;;;5.82;;
14021;SDS011;7086;48.116;11.580;2023-06-22T05:32:39;7.40;;;5.70;;
14021;SDS011;7086;48.116;11.580;2023-06-22T05:35:06;11.77;;;5.47;;
14021;SDS011;7086;48.116;11.580;2023-06-22T05:37:34;10.90;;;5.18;;
14021;SDS011;7086;48.116;11.580;2023-06-22T05:40:00;9.10;;;6.38;;
14021;SDS011;7086;48.116;11.580;2023-06-22T05:42:28;7.57;;;5.00;;
14021;SDS011;7086;48.116;11.580;2023-06-22T05:44:54;9.20;;;5.80;;
14021;SDS011;7086;48.116;11.580;2023-06-22T05:47:24;7.00;;;6.15;;
14021;SDS011;7086;48.116;11.580;2023-06-22T05:49:52;7.25;;;5.15;;
14021;SDS011;7086;48.116;11.580;2023-06-22T05:52:20;4.88;;;4.35;;
14021;SDS011;7086;48.116;11.580;2023-06-22T05:54:47;9.35;;;5.10;;
14021;SDS011;7086;48.116;11.580;2023-06-22T05:57:14;7.70;;;4.68;;
14021;SDS011;7086;48.116;11.580;2023-06-22T05:59:40;9.13;;;4.90;;
14021;SDS011;7086;48.116;11.580;2023-06-22T06:02:07;5.78;;;4.55;;
14021;SDS011;7086;48.116;11.580;2023-06-22T06:04:34;5.32;;;4.88;;
14021;SDS011;7086;48.116;11.580;2023-06-22T06:07:02;7.53;;;5.15;;
14021;SDS011;7086;48.116;11.580;2023-06-22T06:09:29;8.40;;;5.00;;
14021;SDS011;7086;48.116;11.580;2023-06-22T06:11:56;4.85;;;4.40;;
14021;SDS011;7086;48.116;11.580;2023-06-22T06:14:23;5.68;;;4.80;;
14021;SDS011;7086;48.116;11.580;2023-06-22T06:16:49;10.73;;;5.80;;
14021;SDS011;7086;48.116;11.580;2023-06-22T06:19:16;10.27;;;5.97;;
14021;SDS011;7086;48.116;11.580;2023-06-22T06:21:43;7.43;;;5.88;;
14021;SDS011;7086;48.116;11.580;2023-06-22T06:24:12;6.03;;;5.43;;
14021;SDS011;7086;48.116;11.580;2023-06-22T06:26:39;7.47;;;4.93;;
14021;SDS011;7086;48.116;11.580;2023-06-22T06:29:06;10.23;;;5.68;;
14021;SDS011;7086;48.116;11.580;2023-06-22T06:31:33;6.32;;;4.85;;
14021;SDS011;7086;48.116;11.580;2023-06-22T06:34:00;9.48;;;5.45;;
14021;SDS011;7086;48.116;11.580;2023-06-22T06:36:27;5.43;;;4.38;;
14021;SDS011;7086;48.116;11.580;2023-06-22T06:38:54;7.38;;;4.50;;
14021;SDS011;7086;48.116;11.580;2023-06-22T06:41:22;7.45;;;4.93;;
14021;SDS011;7086;48.116;11.580;2023-06-22T06:43:49;8.10;;;4.85;;
14021;SDS011;7086;48.116;11.580;2023-06-22T06:46:17;6.05;;;4.95;;
14021;SDS011;7086;48.116;11.580;2023-06-22T06:48:44;8.13;;;6.65;;
14021;SDS011;7086;48.116;11.580;2023-06-22T06:51:11;7.82;;;5.07;;
14021;SDS011;7086;48.116;11.580;2023-06-22T06:53:37;6.55;;;4.80;;
14021;SDS011;7086;48.116;11.580;2023-06-22T06:56:04;7.93;;;4.70;;
14021;SDS011;7086;48.116;11.580;2023-06-22T06:58:33;7.50;;;4.85;;
14021;SDS011;7086;48.116;11.580;2023-06-22T07:00:59;6.95;;;5.43;;
14021;SDS011;7086;48.116;11.580;2023-06-22T07:03:26;8.95;;;4.60;;
14021;SDS011;7086;48.116;11.580;2023-06-22T07:05:53;9.77;;;4.75;;
14021;SDS011;7086;48.116;11.580;2023-06-22T07:08:20;7.30;;;5.18;;
14021;SDS011;7086;48.116;11.580;2023-06-22T07:10:46;8.68;;;5.03;;
14021;SDS011;7086;48.116;11.580;2023-06-22T07:13:13;7.38;;;4.55;;
14021;SDS011;7086;48.116;11.580;2023-06-22T07:15:41;5.93;;;4.30;;
14021;SDS011;7086;48.116;11.580;2023-06-22T07:18:10;6.15;;;4.20;;
14021;SDS011;7086;48.116;11.580;2023-06-22T07:20:37;4.82;;;4.35;;
14021;SDS011;7086;48.116;11.580;2023-06-22T07:23:04;7.68;;;4.22;;
14021;SDS011;7086;48.116;11.580;2023-06-22T07:25:31;7.22;;;4.35;;
14021;SDS011;7086;48.116;11.580;2023-06-22T07:27:58;7.35;;;4.68;;
14021;SDS011;7086;48.116;11.580;2023-06-22T07:30:26;8.00;;;4.35;;
14021;SDS011;7086;48.116;11.580;2023-06-22T07:32:54;6.53;;;4.68;;
14021;SDS011;7086;48.116;11.580;2023-06-22T07:35:21;9.25;;;4.25;;
14021;SDS011;7086;48.116;11.580;2023-06-22T07:37:48;9.82;;;5.00;;
14021;SDS011;7086;48.116;11.580;2023-06-22T07:40:15;7.03;;;4.45;;
14021;SDS011;7086;48.116;11.580;2023-06-22T07:42:42;6.10;;;4.07;;
14021;SDS011;7086;48.116;11.580;2023-06-22T07:45:09;6.85;;;4.95;;
14021;SDS011;7086;48.116;11.580;2023-06-22T07:47:36;6.55;;;5.07;;
14021;SDS011;7086;48.116;11.580;2023-06-22T07:50:05;6.38;;;3.97;;
14021;SDS011;7086;48.116;11.580;2023-06-22T07:52:32;5.85;;;4.47;;
14021;SDS011;7086;48.116;11.580;2023-06-22T07:54:59;5.45;;;4.05;;
14021;SDS011;7086;48.116;11.580;2023-06-22T07:57:27;5.88;;;4.05;;
14021;SDS011;7086;48.116;11.580;2023-06-22T07:59:58;5.53;;;4.75;;
14021;SDS011;7086;48.116;11.580;2023-06-22T08:02:25;5.45;;;4.50;;
14021;SDS011;7086;48.116;11.580;2023-06-22T08:04:52;11.18;;;5.82;;
14021;SDS011;7086;48.116;11.580;2023-06-22T08:07:20;9.90;;;8.20;;
14021;SDS011;7086;48.116;11.580;2023-06-22T08:09:47;11.43;;;7.53;;
14021;SDS011;7086;48.116;11.580;2023-06-22T08:12:14;7.90;;;6.60;;
14021;SDS011;7086;48.116;11.580;2023-06-22T08:14:42;5.90;;;5.20;;
14021;SDS011;7086;48.116;11.580;2023-06-22T08:17:10;8.00;;;5.72;;
14021;SDS011;7086;48.116;11.580;2023-06-22T08:19:36;7.05;;;6.38;;
14021;SDS011;7086;48.116;11.580;2023-06-22T08:22:04;9.45;;;5.00;;
14021;SDS011;7086;48.116;11.580;2023-06-22T08:24:32;7.80;;;5.75;;
14021;SDS011;7086;48.116;11.580;2023-06-22T08:26:59;9.40;;;6.07;;
14021;SDS011;7086;48.116;11.580;2023-06-22T08:29:26;13.55;;;5.45;;
14021;SDS011;7086;48.116;11.580;2023-06-22T08:31:53;8.00;;;5.38;;
14021;SDS011;7086;48.116;11.580;2023-06-22T08:34:19;6.22;;;4.80;;
14021;SDS011;7086;48.116;11.580;2023-06-22T08:36:48;10.15;;;4.72;;
14021;SDS011;7086;48.116;11.580;2023-06-22T08:39:17;10.63;;;5.43;;
14021;SDS011;7086;48.116;11.580;2023-06-22T08:41:46;12.38;;;8.23;;
14021;SDS011;7086;48.116;11.580;2023-06-22T08:44:13;9.00;;;6.20;;
14021;SDS011;7086;48.116;11.580;2023-06-22T08:46:40;9.05;;;5.40;;
14021;SDS011;7086;48.116;11.580;2023-06-22T08:49:07;7.97;;;4.65;;
14021;SDS011;7086;48.116;11.580;2023-06-22T08:51:34;12.23;;;5.40;;
14021;SDS011;7086;48.116;11.580;2023-06-22T08:54:01;10.48;;;5.47;;
14021;SDS011;7086;48.116;11.580;2023-06-22T08:56:30;9.68;;;4.95;;
14021;SDS011;7086;48.116;11.580;2023-06-22T08:58:58;8.45;;;4.57;;
14021;SDS011;7086;48.116;11.580;2023-06-22T09:01:25;9.93;;;4.63;;
14021;SDS011;7086;48.116;11.580;2023-06-22T09:03:52;6.32;;;4.10;;
14021;SDS011;7086;48.116;11.580;2023-06-22T09:06:22;6.97;;;4.47;;
14021;SDS011;7086;48.116;11.580;2023-06-22T09:08:49;7.57;;;4.38;;
14021;SDS011;7086;48.116;11.580;2023-06-22T09:11:16;9.52;;;4.10;;
14021;SDS011;7086;48.116;11.580;2023-06-22T09:13:43;7.07;;;4.85;;
14021;SDS011;7086;48.116;11.580;2023-06-22T09:16:12;8.90;;;4.72;;
14021;SDS011;7086;48.116;11.580;2023-06-22T09:18:39;7.65;;;5.05;;
14021;SDS011;7086;48.116;11.580;2023-06-22T09:21:07;10.48;;;5.57;;
14021;SDS011;7086;48.116;11.580;2023-06-22T09:23:33;8.38;;;6.05;;
14021;SDS011;7086;48.116;11.580;2023-06-22T09:26:00;9.95;;;5.18;;
14021;SDS011;7086;48.116;11.580;2023-06-22T09:28:29;9.82;;;5.38;;
14021;SDS011;7086;48.116;11.580;2023-06-22T09:30:56;9.65;;;4.90;;
14021;SDS011;7086;48.116;11.580;2023-06-22T09:33:25;9.15;;;5.32;;
14021;SDS011;7086;48.116;11.580;2023-06-22T09:35:52;8.63;;;6.45;;
14021;SDS011;7086;48.116;11.580;2023-06-22T09:38:19;14.57;;;11.13;;
14021;SDS011;7086;48.116;11.580;2023-06-22T09:40:46;10.65;;;6.78;;
14021;SDS011;7086;48.116;11.580;2023-06-22T09:43:12;6.43;;;5.50;;
14021;SDS011;7086;48.116;11.580;2023-06-22T09:45:39;8.30;;;5.45;;
14021;SDS011;7086;48.116;11.580;2023-06-22T09:48:06;11.57;;;6.15;;
14021;SDS011;7086;48.116;11.580;2023-06-22T09:50:36;5.38;;;4.50;;
14021;SDS011;7086;48.116;11.580;2023-06-22T09:53:03;7.68;;;4.80;;
14021;SDS011;7086;48.116;11.580;2023-06-22T09:55:30;5.57;;;4.38;;
14021;SDS011;7086;48.116;11.580;2023-06-22T09:57:56;11.90;;;8.13;;
14021;SDS011;7086;48.116;11.580;2023-06-22T10:00:23;12.68;;;7.68;;
14021;SDS011;7086;48.116;11.580;2023-06-22T10:02:51;6.68;;;5.28;;
14021;SDS011;7086;48.116;11.580;2023-06-22T10:05:18;10.23;;;5.63;;
14021;SDS011;7086;48.116;11.580;2023-06-22T10:07:47;9.02;;;7.00;;
14021;SDS011;7086;48.116;11.580;2023-06-22T10:10:14;7.53;;;5.70;;
14021;SDS011;7086;48.116;11.580;2023-06-22T10:12:41;8.98;;;5.60;;
14021;SDS011;7086;48.116;11.580;2023-06-22T10:15:10;8.57;;;4.70;;
14021;SDS011;7086;48.116;11.580;2023-06-22T10:17:37;7.25;;;5.18;;
14021;SDS011;7086;48.116;11.580;2023-06-22T10:20:05;7.72;;;4.38;;
14021;SDS011;7086;48.116;11.580;2023-06-22T10:22:36;8.32;;;4.35;;
14021;SDS011;7086;48.116;11.580;2023-06-22T10:25:06;5.95;;;4.18;;
14021;SDS011;7086;48.116;11.580;2023-06-22T10:27:34;6.68;;;4.43;;
14021;SDS011;7086;48.116;11.580;2023-06-22T10:30:05;6.75;;;4.85;;
14021;SDS011;7086;48.116;11.580;2023-06-22T10:32:35;5.50;;;4.60;;
14021;SDS011;7086;48.116;11.580;2023-06-22T10:35:04;8.32;;;4.68;;
14021;SDS011;7086;48.116;11.580;2023-06-22T10:37:31;5.10;;;3.92;;
14021;SDS011;7086;48.116;11.580;2023-06-22T10:40:00;7.35;;;4.63;;
14021;SDS011;7086;48.116;11.580;2023-06-22T10:42:29;10.48;;;4.78;;
14021;SDS011;7086;48.116;11.580;2023-06-22T10:44:56;7.80;;;4.32;;
14021;SDS011;7086;48.116;11.580;2023-06-22T10:47:23;5.72;;;4.60;;
14021;SDS011;7086;48.116;11.580;2023-06-22T10:49:50;7.50;;;4.10;;
14021;SDS011;7086;48.116;11.580;2023-06-22T10:52:19;12.63;;;4.75;;
14021;SDS011;7086;48.116;11.580;2023-06-22T10:57:35;7.35;;;4.50;;
14021;SDS011;7086;48.116;11.580;2023-06-22T11:00:04;8.95;;;4.88;;
14021;SDS011;7086;48.116;11.580;2023-06-22T11:02:33;10.80;;;5.07;;
14021;SDS011;7086;48.116;11.580;2023-06-22T11:05:00;9.15;;;4.40;;
14021;SDS011;7086;48.116;11.580;2023-06-22T11:07:28;7.28;;;4.75;;
14021;SDS011;7086;48.116;11.580;2023-06-22T11:09:56;11.27;;;5.00;;
14021;SDS011;7086;48.116;11.580;2023-06-22T11:12:23;13.90;;;5.38;;
14021;SDS011;7086;48.116;11.580;2023-06-22T11:14:51;8.25;;;4.18;;
14021;SDS011;7086;48.116;11.580;2023-06-22T11:17:18;9.13;;;4.47;;
14021;SDS011;7086;48.116;11.580;2023-06-22T11:19:45;7.28;;;4.40;;
14021;SDS011;7086;48.116;11.580;2023-06-22T11:22:12;8.68;;;4.82;;
14021;SDS011;7086;48.116;11.580;2023-06-22T11:24:39;13.30;;;4.93;;
14021;SDS011;7086;48.116;11.580;2023-06-22T11:27:06;6.30;;;4.30;;
14021;SDS011;7086;48.116;11.580;2023-06-22T11:29:33;8.63;;;4.25;;
14021;SDS011;7086;48.116;11.580;2023-06-22T11:32:02;9.52;;;5.18;;
14021;SDS011;7086;48.116;11.580;2023-06-22T11:34:30;7.13;;;4.60;;
14021;SDS011;7086;48.116;11.580;2023-06-22T11:36:56;10.32;;;5.00;;
14021;SDS011;7086;48.116;11.580;2023-06-22T11:39:23;7.15;;;5.38;;
14021;SDS011;7086;48.116;11.580;2023-06-22T11:41:50;7.72;;;4.68;;
14021;SDS011;7086;48.116;11.580;2023-06-22T11:44:17;8.02;;;4.80;;
14021;SDS011;7086;48.116;11.580;2023-06-22T11:46:44;8.50;;;4.55;;
14021;SDS011;7086;48.116;11.580;2023-06-22T11:49:14;5.55;;;4.65;;
14021;SDS011;7086;48.116;11.580;2023-06-22T11:51:41;6.60;;;4.05;;
14021;SDS011;7086;48.116;11.580;2023-06-22T11:54:08;10.32;;;4.15;;
14021;SDS011;7086;48.116;11.580;2023-06-22T11:56:36;9.93;;;4.95;;
14021;SDS011;7086;48.116;11.580;2023-06-22T11:59:03;8.52;;;4.63;;
14021;SDS011;7086;48.116;11.580;2023-06-22T12:01:30;8.27;;;5.03;;
14021;SDS011;7086;48.116;11.580;2023-06-22T12:03:58;10.25;;;5.03;;
14021;SDS011;7086;48.116;11.580;2023-06-22T12:06:30;10.52;;;5.00;;
14021;SDS011;7086;48.116;11.580;2023-06-22T12:09:00;9.60;;;5.22;;
14021;SDS011;7086;48.116;11.580;2023-06-22T12:11:27;8.68;;;5.05;;
14021;SDS011;7086;48.116;11.580;2023-06-22T12:13:54;8.27;;;4.60;;
14021;SDS011;7086;48.116;11.580;2023-06-22T12:16:21;11.88;;;5.47;;
14021;SDS011;7086;48.116;11.580;2023-06-22T12:18:49;8.82;;;5.60;;
14021;SDS011;7086;48.116;11.580;2023-06-22T12:21:16;9.48;;;5.07;;
14021;SDS011;7086;48.116;11.580;2023-06-22T12:23:45;8.82;;;4.85;;
14021;SDS011;7086;48.116;11.580;2023-06-22T12:26:12;12.00;;;5.80;;
14021;SDS011;7086;48.116;11.580;2023-06-22T12:28:39;9.43;;;4.97;;
14021;SDS011;7086;48.116;11.580;2023-06-22T12:31:05;8.48;;;5.93;;
14021;SDS011;7086;48.116;11.580;2023-06-22T12:33:32;8.95;;;5.20;;
14021;SDS011;7086;48.116;11.580;2023-06-22T12:35:59;9.27;;;5.93;;
14021;SDS011;7086;48.116;11.580;2023-06-22T12:38:26;8.18;;;5.22;;
14021;SDS011;7086;48.116;11.580;2023-06-22T12:40:54;10.30;;;4.95;;
14021;SDS011;7086;48.116;11.580;2023-06-22T12:43:21;8.20;;;4.60;;
14021;SDS011;7086;48.116;11.580;2023-06-22T12:45:47;7.55;;;4.40;;
14021;SDS011;7086;48.116;11.580;2023-06-22T12:48:14;10.63;;;5.07;;
14021;SDS011;7086;48.116;11.580;2023-06-22T12:50:42;8.77;;;4.38;;
14021;SDS011;7086;48.116;11.580;2023-06-22T12:53:09;11.77;;;5.50;;
14021;SDS011;7086;48.116;11.580;2023-06-22T12:55:35;12.20;;;4.50;;
14021;SDS011;7086;48.116;11.580;2023-06-22T12:58:03;9.75;;;4.72;;
14021;SDS011;7086;48.116;11.580;2023-06-22T13:00:30;6.07;;;4.18;;
14021;SDS011;7086;48.116;11.580;2023-06-22T13:02:57;6.75;;;4.25;;
14021;SDS011;7086;48.116;11.580;2023-06-22T13:05:24;8.77;;;4.68;;
14021;SDS011;7086;48.116;11.580;2023-06-22T13:07:51;10.00;;;4.32;;
14021;SDS011;7086;48.116;11.580;2023-06-22T13:10:18;11.07;;;4.72;;
14021;SDS011;7086;48.116;11.580;2023-06-22T13:12:44;7.32;;;4.20;;
14021;SDS011;7086;48.116;11.580;2023-06-22T13:15:12;6.40;;;3.92;;
14021;SDS011;7086;48.116;11.580;2023-06-22T13:17:39;9.52;;;3.97;;
14021;SDS011;7086;48.116;11.580;2023-06-22T13:20:06;10.10;;;4.75;;
14021;SDS011;7086;48.116;11.580;2023-06-22T13:22:35;9.25;;;5.25;;
14021;SDS011;7086;48.116;11.580;2023-06-22T13:25:05;13.70;;;5.07;;
14021;SDS011;7086;48.116;11.580;2023-06-22T13:27:37;12.20;;;4.10;;
14021;SDS011;7086;48.116;11.580;2023-06-22T13:30:05;8.20;;;4.30;;
14021;SDS011;7086;48.116;11.580;2023-06-22T13:32:34;6.97;;;4.57;;
14021;SDS011;7086;48.116;11.580;2023-06-22T13:35:01;9.70;;;4.68;;
14021;SDS011;7086;48.116;11.580;2023-06-22T13:37:28;6.70;;;3.70;;
14021;SDS011;7086;48.116;11.580;2023-06-22T13:39:55;9.43;;;4.05;;
14021;SDS011;7086;48.116;11.580;2023-06-22T13:42:24;6.45;;;3.78;;
14021;SDS011;7086;48.116;11.580;2023-06-22T13:44:51;9.00;;;4.95;;
14021;SDS011;7086;48.116;11.580;2023-06-22T13:47:18;7.03;;;4.13;;
14021;SDS011;7086;48.116;11.580;2023-06-22T13:49:46;9.38;;;3.92;;
14021;SDS011;7086;48.116;11.580;2023-06-22T13:52:13;4.30;;;3.90;;
14021;SDS011;7086;48.116;11.580;2023-06-22T13:54:39;6.72;;;4.32;;
14021;SDS011;7086;48.116;11.580;2023-06-22T13:57:07;6.53;;;4.20;;
14021;SDS011;7086;48.116;11.580;2023-06-22T13:59:34;10.55;;;3.70;;
14021;SDS011;7086;48.116;11.580;2023-06-22T14:02:01;7.00;;;4.53;;
14021;SDS011;7086;48.116;11.580;2023-06-22T14:04:27;7.65;;;4.47;;
14021;SDS011;7086;48.116;11.580;2023-06-22T14:06:56;8.35;;;4.07;;
14021;SDS011;7086;48.116;11.580;2023-06-22T14:09:23;11.73;;;4.20;;
14021;SDS011;7086;48.116;11.580;2023-06-22T14:11:50;5.97;;;4.32;;
14021;SDS011;7086;48.116;11.580;2023-06-22T14:14:17;6.65;;;4.53;;
14021;SDS011;7086;48.116;11.580;2023-06-22T14:16:44;7.70;;;3.90;;
14021;SDS011;7086;48.116;11.580;2023-06-22T14:19:10;7.75;;;4.88;;
14021;SDS011;7086;48.116;11.580;2023-06-22T14:21:37;8.35;;;3.80;;
14021;SDS011;7086;48.116;11.580;2023-06-22T14:24:05;10.73;;;4.20;;
14021;SDS011;7086;48.116;11.580;2023-06-22T14:26:32;11.00;;;4.22;;
14021;SDS011;7086;48.116;11.580;2023-06-22T14:28:59;5.78;;;4.43;;
14021;SDS011;7086;48.116;11.580;2023-06-22T14:31:26;8.43;;;4.43;;
14021;SDS011;7086;48.116;11.580;2023-06-22T14:33:53;8.10;;;4.30;;
14021;SDS011;7086;48.116;11.580;2023-06-22T14:36:19;10.60;;;4.55;;
14021;SDS011;7086;48.116;11.580;2023-06-22T14:38:46;8.73;;;4.00;;
14021;SDS011;7086;48.116;11.580;2023-06-22T14:41:14;7.22;;;4.65;;
14021;SDS011;7086;48.116;11.580;2023-06-22T14:43:45;9.88;;;4.60;;
14021;SDS011;7086;48.116;11.580;2023-06-22T14:46:13;6.05;;;4.40;;
14021;SDS011;7086;48.116;11.580;2023-06-22T14:48:40;8.45;;;4.88;;
14021;SDS011;7086;48.116;11.580;2023-06-22T14:51:07;7.65;;;4.53;;